sensor_id;sensor_type;location;lat;lon;timestamp;P1;durP1;ratioP1;P2;durP2;ratioP2
64601;SDS011;51013;42.630;23.192;2023-02-24T00:01:13;34.17;;;13.02;;
64601;SDS011;51013;42.630;23.192;2023-02-24T00:03:49;32.78;;;12.88;;
64601;SDS011;51013;42.630;23.192;2023-02-24T00:06:16;23.35;;;10.95;;
64601;SDS011;51013;42.630;23.192;2023-02-24T00:08:43;30.63;;;11.90;;
64601;SDS011;51013;42.630;23.192;2023-02-24T00:11:12;30.75;;;12.07;;
64601;SDS011;51013;42.630;23.192;2023-02-24T00:13:41;29.67;;;11.55;;
64601;SDS011;51013;42.630;23.192;2023-02-24T00:16:13;25.75;;;11.70;;
64601;SDS011;51013;42.630;23.192;2023-02-24T00:18:42;27.15;;;11.50;;
64601;SDS011;51013;42.630;23.192;2023-02-24T00:21:10;27.13;;;11.60;;
64601;SDS011;51013;42.630;23.192;2023-02-24T00:23:39;24.98;;;10.95;;
64601;SDS011;51013;42.630;23.192;2023-02-24T00:26:08;26.00;;;12.68;;
64601;SDS011;51013;42.630;23.192;2023-02-24T00:28:37;27.73;;;12.27;;
64601;SDS011;51013;42.630;23.192;2023-02-24T00:31:04;30.30;;;11.52;;
64601;SDS011;51013;42.630;23.192;2023-02-24T00:33:33;25.85;;;10.80;;
64601;SDS011;51013;42.630;23.192;2023-02-24T00:36:03;24.13;;;11.25;;
64601;SDS011;51013;42.630;23.192;2023-02-24T00:38:35;25.73;;;10.85;;
64601;SDS011;51013;42.630;23.192;2023-02-24T00:41:09;24.08;;;10.38;;
64601;SDS011;51013;42.630;23.192;2023-02-24T00:43:39;19.48;;;8.13;;
64601;SDS011;51013;42.630;23.192;2023-02-24T00:48:40;19.02;;;8.10;;
64601;SDS011;51013;42.630;23.192;2023-02-24T00:51:10;19.20;;;7.68;;
64601;SDS011;51013;42.630;23.192;2023-02-24T00:53:38;18.98;;;9.27;;
64601;SDS011;51013;42.630;23.192;2023-02-24T00:56:05;19.80;;;8.10;;
64601;SDS011;51013;42.630;23.192;2023-02-24T00:58:36;22.77;;;8.55;;
64601;SDS011;51013;42.630;23.192;2023-02-24T01:01:03;24.65;;;10.15;;
64601;SDS011;51013;42.630;23.192;2023-02-24T01:03:33;16.02;;;7.88;;
64601;SDS011;51013;42.630;23.192;2023-02-24T01:06:01;18.83;;;7.57;;
64601;SDS011;51013;42.630;23.192;2023-02-24T01:08:28;17.45;;;8.15;;
64601;SDS011;51013;42.630;23.192;2023-02-24T01:10:56;20.65;;;8.07;;
64601;SDS011;51013;42.630;23.192;2023-02-24T01:13:37;20.13;;;8.13;;
64601;SDS011;51013;42.630;23.192;2023-02-24T01:16:03;19.50;;;7.50;;
64601;SDS011;51013;42.630;23.192;2023-02-24T01:18:31;18.35;;;6.40;;
64601;SDS011;51013;42.630;23.192;2023-02-24T01:20:58;26.60;;;8.18;;
64601;SDS011;51013;42.630;23.192;2023-02-24T01:23:26;18.23;;;7.40;;
64601;SDS011;51013;42.630;23.192;2023-02-24T01:25:53;19.67;;;6.80;;
64601;SDS011;51013;42.630;23.192;2023-02-24T01:28:22;13.60;;;6.20;;
64601;SDS011;51013;42.630;23.192;2023-02-24T01:30:49;11.73;;;5.43;;
64601;SDS011;51013;42.630;23.192;2023-02-24T01:33:16;16.08;;;6.85;;
64601;SDS011;51013;42.630;23.192;2023-02-24T01:35:43;18.23;;;7.65;;
64601;SDS011;51013;42.630;23.192;2023-02-24T01:38:11;20.98;;;7.45;;
64601;SDS011;51013;42.630;23.192;2023-02-24T01:40:40;18.95;;;7.78;;
64601;SDS011;51013;42.630;23.192;2023-02-24T01:43:08;16.92;;;7.28;;
64601;SDS011;51013;42.630;23.192;2023-02-24T01:45:35;18.40;;;8.43;;
64601;SDS011;51013;42.630;23.192;2023-02-24T01:48:05;17.50;;;7.57;;
64601;SDS011;51013;42.630;23.192;2023-02-24T01:50:35;14.57;;;7.43;;
64601;SDS011;51013;42.630;23.192;2023-02-24T01:53:04;15.27;;;6.80;;
64601;SDS011;51013;42.630;23.192;2023-02-24T01:55:33;18.85;;;7.00;;
64601;SDS011;51013;42.630;23.192;2023-02-24T01:58:07;16.83;;;7.20;;
64601;SDS011;51013;42.630;23.192;2023-02-24T02:00:40;11.38;;;5.75;;
64601;SDS011;51013;42.630;23.192;2023-02-24T02:03:13;17.85;;;8.18;;
64601;SDS011;51013;42.630;23.192;2023-02-24T02:05:46;19.65;;;7.78;;
64601;SDS011;51013;42.630;23.192;2023-02-24T02:08:16;20.60;;;7.55;;
64601;SDS011;51013;42.630;23.192;2023-02-24T02:10:44;16.92;;;7.68;;
64601;SDS011;51013;42.630;23.192;2023-02-24T02:13:14;17.67;;;7.07;;
64601;SDS011;51013;42.630;23.192;2023-02-24T02:22:07;16.52;;;7.05;;
64601;SDS011;51013;42.630;23.192;2023-02-24T02:24:59;16.08;;;7.68;;
64601;SDS011;51013;42.630;23.192;2023-02-24T02:27:53;17.30;;;7.38;;
64601;SDS011;51013;42.630;23.192;2023-02-24T02:30:49;13.25;;;6.65;;
64601;SDS011;51013;42.630;23.192;2023-02-24T02:33:50;18.65;;;7.28;;
64601;SDS011;51013;42.630;23.192;2023-02-24T02:36:35;14.32;;;7.00;;
64601;SDS011;51013;42.630;23.192;2023-02-24T02:39:13;17.73;;;6.80;;
64601;SDS011;51013;42.630;23.192;2023-02-24T02:41:49;13.93;;;6.15;;
64601;SDS011;51013;42.630;23.192;2023-02-24T02:44:21;15.18;;;6.68;;
64601;SDS011;51013;42.630;23.192;2023-02-24T02:46:57;16.25;;;7.78;;
64601;SDS011;51013;42.630;23.192;2023-02-24T02:49:30;12.65;;;6.45;;
64601;SDS011;51013;42.630;23.192;2023-02-24T02:52:04;16.60;;;6.70;;
64601;SDS011;51013;42.630;23.192;2023-02-24T02:54:38;12.48;;;6.65;;
64601;SDS011;51013;42.630;23.192;2023-02-24T02:57:14;14.57;;;6.45;;
64601;SDS011;51013;42.630;23.192;2023-02-24T02:59:47;11.63;;;5.82;;
64601;SDS011;51013;42.630;23.192;2023-02-24T03:04:54;14.00;;;6.07;;
64601;SDS011;51013;42.630;23.192;2023-02-24T03:07:23;13.88;;;6.30;;
64601;SDS011;51013;42.630;23.192;2023-02-24T03:09:55;17.25;;;6.75;;
64601;SDS011;51013;42.630;23.192;2023-02-24T03:14:57;13.77;;;6.03;;
64601;SDS011;51013;42.630;23.192;2023-02-24T03:17:29;15.00;;;6.53;;
64601;SDS011;51013;42.630;23.192;2023-02-24T03:20:02;14.30;;;6.40;;
64601;SDS011;51013;42.630;23.192;2023-02-24T03:22:41;12.50;;;5.80;;
64601;SDS011;51013;42.630;23.192;2023-02-24T03:25:13;15.38;;;6.57;;
64601;SDS011;51013;42.630;23.192;2023-02-24T03:27:43;16.05;;;6.57;;
64601;SDS011;51013;42.630;23.192;2023-02-24T03:30:15;11.65;;;6.03;;
64601;SDS011;51013;42.630;23.192;2023-02-24T03:32:46;16.77;;;6.90;;
64601;SDS011;51013;42.630;23.192;2023-02-24T03:35:20;15.80;;;7.00;;
64601;SDS011;51013;42.630;23.192;2023-02-24T03:37:49;13.57;;;5.63;;
64601;SDS011;51013;42.630;23.192;2023-02-24T03:40:19;38.05;;;14.90;;
64601;SDS011;51013;42.630;23.192;2023-02-24T03:42:53;17.00;;;6.35;;
64601;SDS011;51013;42.630;23.192;2023-02-24T03:45:29;14.02;;;6.15;;
64601;SDS011;51013;42.630;23.192;2023-02-24T03:47:58;15.07;;;5.85;;
64601;SDS011;51013;42.630;23.192;2023-02-24T03:50:28;15.55;;;6.50;;
64601;SDS011;51013;42.630;23.192;2023-02-24T03:52:58;16.67;;;6.88;;
64601;SDS011;51013;42.630;23.192;2023-02-24T03:55:31;11.98;;;5.35;;
64601;SDS011;51013;42.630;23.192;2023-02-24T03:58:11;14.85;;;5.68;;
64601;SDS011;51013;42.630;23.192;2023-02-24T04:00:45;15.88;;;6.22;;
64601;SDS011;51013;42.630;23.192;2023-02-24T04:03:21;12.77;;;5.88;;
64601;SDS011;51013;42.630;23.192;2023-02-24T04:05:58;12.82;;;6.78;;
64601;SDS011;51013;42.630;23.192;2023-02-24T04:08:36;16.20;;;6.55;;
64601;SDS011;51013;42.630;23.192;2023-02-24T04:11:09;11.75;;;4.72;;
64601;SDS011;51013;42.630;23.192;2023-02-24T04:13:45;11.77;;;5.85;;
64601;SDS011;51013;42.630;23.192;2023-02-24T04:16:18;15.43;;;6.18;;
64601;SDS011;51013;42.630;23.192;2023-02-24T04:18:52;16.95;;;6.28;;
64601;SDS011;51013;42.630;23.192;2023-02-24T04:21:25;13.55;;;5.88;;
64601;SDS011;51013;42.630;23.192;2023-02-24T04:23:55;15.93;;;6.50;;
64601;SDS011;51013;42.630;23.192;2023-02-24T04:26:24;14.82;;;6.88;;
64601;SDS011;51013;42.630;23.192;2023-02-24T04:28:52;15.00;;;6.88;;
64601;SDS011;51013;42.630;23.192;2023-02-24T04:31:21;16.50;;;6.25;;
64601;SDS011;51013;42.630;23.192;2023-02-24T04:33:52;13.00;;;5.78;;
64601;SDS011;51013;42.630;23.192;2023-02-24T04:36:19;11.35;;;5.35;;
64601;SDS011;51013;42.630;23.192;2023-02-24T04:38:50;13.38;;;5.50;;
64601;SDS011;51013;42.630;23.192;2023-02-24T04:41:18;14.55;;;6.30;;
64601;SDS011;51013;42.630;23.192;2023-02-24T04:43:46;14.23;;;6.55;;
64601;SDS011;51013;42.630;23.192;2023-02-24T04:46:14;15.65;;;5.72;;
64601;SDS011;51013;42.630;23.192;2023-02-24T04:48:41;16.52;;;5.88;;
64601;SDS011;51013;42.630;23.192;2023-02-24T04:51:09;13.45;;;5.78;;
64601;SDS011;51013;42.630;23.192;2023-02-24T04:53:37;12.85;;;6.07;;
64601;SDS011;51013;42.630;23.192;2023-02-24T04:56:06;15.02;;;6.65;;
64601;SDS011;51013;42.630;23.192;2023-02-24T04:58:33;18.08;;;6.45;;
64601;SDS011;51013;42.630;23.192;2023-02-24T05:01:04;17.33;;;6.47;;
64601;SDS011;51013;42.630;23.192;2023-02-24T05:03:34;15.95;;;7.15;;
64601;SDS011;51013;42.630;23.192;2023-02-24T05:06:01;16.60;;;7.43;;
64601;SDS011;51013;42.630;23.192;2023-02-24T05:08:30;16.63;;;6.10;;
64601;SDS011;51013;42.630;23.192;2023-02-24T05:10:58;14.73;;;6.78;;
64601;SDS011;51013;42.630;23.192;2023-02-24T05:13:29;19.15;;;7.50;;
64601;SDS011;51013;42.630;23.192;2023-02-24T05:15:58;19.92;;;8.40;;
64601;SDS011;51013;42.630;23.192;2023-02-24T05:18:31;18.17;;;6.53;;
64601;SDS011;51013;42.630;23.192;2023-02-24T05:21:03;13.55;;;6.15;;
64601;SDS011;51013;42.630;23.192;2023-02-24T05:23:48;14.85;;;5.93;;
64601;SDS011;51013;42.630;23.192;2023-02-24T05:26:16;16.40;;;7.00;;
64601;SDS011;51013;42.630;23.192;2023-02-24T05:28:46;13.32;;;6.28;;
64601;SDS011;51013;42.630;23.192;2023-02-24T05:31:17;15.68;;;6.85;;
64601;SDS011;51013;42.630;23.192;2023-02-24T05:33:45;15.98;;;6.65;;
64601;SDS011;51013;42.630;23.192;2023-02-24T05:36:14;13.65;;;6.45;;
64601;SDS011;51013;42.630;23.192;2023-02-24T05:38:42;16.83;;;6.53;;
64601;SDS011;51013;42.630;23.192;2023-02-24T05:41:11;15.32;;;6.53;;
64601;SDS011;51013;42.630;23.192;2023-02-24T05:43:41;17.30;;;6.97;;
64601;SDS011;51013;42.630;23.192;2023-02-24T05:46:13;16.70;;;6.75;;
64601;SDS011;51013;42.630;23.192;2023-02-24T05:48:40;14.27;;;7.32;;
64601;SDS011;51013;42.630;23.192;2023-02-24T05:51:08;14.50;;;6.30;;
64601;SDS011;51013;42.630;23.192;2023-02-24T05:53:36;20.08;;;6.82;;
64601;SDS011;51013;42.630;23.192;2023-02-24T05:56:05;13.77;;;6.43;;
64601;SDS011;51013;42.630;23.192;2023-02-24T05:58:32;14.65;;;6.75;;
64601;SDS011;51013;42.630;23.192;2023-02-24T06:00:59;13.40;;;7.13;;
64601;SDS011;51013;42.630;23.192;2023-02-24T06:03:32;13.55;;;6.30;;
64601;SDS011;51013;42.630;23.192;2023-02-24T06:05:59;16.60;;;6.45;;
64601;SDS011;51013;42.630;23.192;2023-02-24T06:08:30;14.82;;;6.80;;
64601;SDS011;51013;42.630;23.192;2023-02-24T06:11:06;15.75;;;7.45;;
64601;SDS011;51013;42.630;23.192;2023-02-24T06:13:34;15.63;;;7.60;;
64601;SDS011;51013;42.630;23.192;2023-02-24T06:16:01;16.33;;;7.05;;
64601;SDS011;51013;42.630;23.192;2023-02-24T06:18:28;19.20;;;7.65;;
64601;SDS011;51013;42.630;23.192;2023-02-24T06:20:59;16.02;;;6.43;;
64601;SDS011;51013;42.630;23.192;2023-02-24T06:23:27;15.38;;;7.28;;
64601;SDS011;51013;42.630;23.192;2023-02-24T06:25:53;14.90;;;6.32;;
64601;SDS011;51013;42.630;23.192;2023-02-24T06:28:22;19.17;;;7.28;;
64601;SDS011;51013;42.630;23.192;2023-02-24T06:30:49;16.15;;;7.15;;
64601;SDS011;51013;42.630;23.192;2023-02-24T06:33:16;22.23;;;9.40;;
64601;SDS011;51013;42.630;23.192;2023-02-24T06:35:43;16.58;;;8.35;;
64601;SDS011;51013;42.630;23.192;2023-02-24T06:38:11;18.10;;;7.70;;
64601;SDS011;51013;42.630;23.192;2023-02-24T06:40:38;23.05;;;10.50;;
64601;SDS011;51013;42.630;23.192;2023-02-24T06:43:07;17.08;;;7.53;;
64601;SDS011;51013;42.630;23.192;2023-02-24T06:45:35;20.98;;;10.15;;
64601;SDS011;51013;42.630;23.192;2023-02-24T06:48:02;19.55;;;9.82;;
64601;SDS011;51013;42.630;23.192;2023-02-24T06:50:28;17.92;;;8.40;;
64601;SDS011;51013;42.630;23.192;2023-02-24T06:52:56;16.90;;;7.32;;
64601;SDS011;51013;42.630;23.192;2023-02-24T06:55:26;18.27;;;8.40;;
64601;SDS011;51013;42.630;23.192;2023-02-24T06:57:54;17.33;;;7.70;;
64601;SDS011;51013;42.630;23.192;2023-02-24T07:00:23;19.85;;;8.13;;
64601;SDS011;51013;42.630;23.192;2023-02-24T07:03:01;15.57;;;7.53;;
64601;SDS011;51013;42.630;23.192;2023-02-24T07:05:39;50.67;;;14.48;;
64601;SDS011;51013;42.630;23.192;2023-02-24T07:08:06;63.33;;;14.35;;
64601;SDS011;51013;42.630;23.192;2023-02-24T07:10:35;36.47;;;12.27;;
64601;SDS011;51013;42.630;23.192;2023-02-24T07:13:01;34.28;;;10.65;;
64601;SDS011;51013;42.630;23.192;2023-02-24T07:15:28;30.08;;;10.73;;
64601;SDS011;51013;42.630;23.192;2023-02-24T07:17:56;22.88;;;9.27;;
64601;SDS011;51013;42.630;23.192;2023-02-24T07:20:23;15.80;;;7.97;;
64601;SDS011;51013;42.630;23.192;2023-02-24T07:22:50;19.92;;;8.95;;
64601;SDS011;51013;42.630;23.192;2023-02-24T07:25:17;19.50;;;7.22;;
64601;SDS011;51013;42.630;23.192;2023-02-24T07:27:58;18.33;;;8.73;;
64601;SDS011;51013;42.630;23.192;2023-02-24T07:30:26;19.58;;;8.93;;
64601;SDS011;51013;42.630;23.192;2023-02-24T07:32:54;19.70;;;9.55;;
64601;SDS011;51013;42.630;23.192;2023-02-24T07:35:20;16.92;;;8.05;;
64601;SDS011;51013;42.630;23.192;2023-02-24T07:37:48;17.70;;;9.07;;
64601;SDS011;51013;42.630;23.192;2023-02-24T07:40:15;26.30;;;10.75;;
64601;SDS011;51013;42.630;23.192;2023-02-24T07:42:42;18.92;;;9.77;;
64601;SDS011;51013;42.630;23.192;2023-02-24T07:45:13;18.35;;;9.98;;
64601;SDS011;51013;42.630;23.192;2023-02-24T07:47:40;30.27;;;11.70;;
64601;SDS011;51013;42.630;23.192;2023-02-24T07:50:07;21.80;;;10.77;;
64601;SDS011;51013;42.630;23.192;2023-02-24T07:52:38;42.33;;;15.52;;
64601;SDS011;51013;42.630;23.192;2023-02-24T07:55:06;30.38;;;11.48;;
64601;SDS011;51013;42.630;23.192;2023-02-24T07:57:34;23.80;;;8.85;;
64601;SDS011;51013;42.630;23.192;2023-02-24T08:00:03;27.13;;;11.70;;
64601;SDS011;51013;42.630;23.192;2023-02-24T08:02:44;22.75;;;11.02;;
64601;SDS011;51013;42.630;23.192;2023-02-24T08:05:12;24.70;;;10.63;;
64601;SDS011;51013;42.630;23.192;2023-02-24T08:07:39;23.33;;;10.27;;
64601;SDS011;51013;42.630;23.192;2023-02-24T08:10:07;18.45;;;10.25;;
64601;SDS011;51013;42.630;23.192;2023-02-24T08:12:38;18.38;;;8.15;;
64601;SDS011;51013;42.630;23.192;2023-02-24T08:15:10;28.52;;;11.77;;
64601;SDS011;51013;42.630;23.192;2023-02-24T08:17:49;20.10;;;9.82;;
64601;SDS011;51013;42.630;23.192;2023-02-24T08:20:18;25.52;;;11.98;;
64601;SDS011;51013;42.630;23.192;2023-02-24T08:22:50;23.52;;;10.75;;
64601;SDS011;51013;42.630;23.192;2023-02-24T08:25:18;23.45;;;11.80;;
64601;SDS011;51013;42.630;23.192;2023-02-24T08:27:47;25.52;;;11.90;;
64601;SDS011;51013;42.630;23.192;2023-02-24T08:30:20;19.38;;;11.02;;
64601;SDS011;51013;42.630;23.192;2023-02-24T08:32:50;18.98;;;10.77;;
64601;SDS011;51013;42.630;23.192;2023-02-24T08:35:22;20.63;;;11.02;;
64601;SDS011;51013;42.630;23.192;2023-02-24T08:37:57;22.10;;;10.73;;
64601;SDS011;51013;42.630;23.192;2023-02-24T08:40:30;24.15;;;11.30;;
64601;SDS011;51013;42.630;23.192;2023-02-24T08:43:16;22.05;;;11.05;;
64601;SDS011;51013;42.630;23.192;2023-02-24T08:45:57;21.65;;;10.93;;
64601;SDS011;51013;42.630;23.192;2023-02-24T08:48:29;21.25;;;10.13;;
64601;SDS011;51013;42.630;23.192;2023-02-24T08:51:04;24.40;;;11.23;;
64601;SDS011;51013;42.630;23.192;2023-02-24T08:53:33;20.45;;;11.10;;
64601;SDS011;51013;42.630;23.192;2023-02-24T08:56:04;26.35;;;14.02;;
64601;SDS011;51013;42.630;23.192;2023-02-24T08:58:35;26.40;;;12.52;;
64601;SDS011;51013;42.630;23.192;2023-02-24T09:01:11;28.25;;;13.90;;
64601;SDS011;51013;42.630;23.192;2023-02-24T09:03:50;26.88;;;12.82;;
64601;SDS011;51013;42.630;23.192;2023-02-24T09:06:21;24.58;;;12.65;;
64601;SDS011;51013;42.630;23.192;2023-02-24T09:08:51;20.70;;;9.48;;
64601;SDS011;51013;42.630;23.192;2023-02-24T09:11:41;22.13;;;11.90;;
64601;SDS011;51013;42.630;23.192;2023-02-24T09:14:09;16.42;;;9.35;;
64601;SDS011;51013;42.630;23.192;2023-02-24T09:16:41;34.63;;;12.40;;
64601;SDS011;51013;42.630;23.192;2023-02-24T09:19:27;16.45;;;8.15;;
64601;SDS011;51013;42.630;23.192;2023-02-24T09:22:12;18.60;;;9.68;;
64601;SDS011;51013;42.630;23.192;2023-02-24T09:24:53;11.18;;;5.15;;
64601;SDS011;51013;42.630;23.192;2023-02-24T09:27:40;15.93;;;8.65;;
64601;SDS011;51013;42.630;23.192;2023-02-24T09:30:08;15.25;;;9.23;;
64601;SDS011;51013;42.630;23.192;2023-02-24T09:32:56;16.40;;;9.75;;
64601;SDS011;51013;42.630;23.192;2023-02-24T09:35:26;16.15;;;8.73;;
64601;SDS011;51013;42.630;23.192;2023-02-24T09:37:55;14.90;;;9.10;;
64601;SDS011;51013;42.630;23.192;2023-02-24T09:40:24;15.20;;;8.80;;
64601;SDS011;51013;42.630;23.192;2023-02-24T09:43:13;18.02;;;9.38;;
64601;SDS011;51013;42.630;23.192;2023-02-24T09:45:48;14.70;;;7.43;;
64601;SDS011;51013;42.630;23.192;2023-02-24T09:48:24;12.32;;;7.18;;
64601;SDS011;51013;42.630;23.192;2023-02-24T09:51:09;15.10;;;6.80;;
64601;SDS011;51013;42.630;23.192;2023-02-24T09:53:45;12.23;;;6.78;;
64601;SDS011;51013;42.630;23.192;2023-02-24T09:58:47;10.05;;;4.90;;
64601;SDS011;51013;42.630;23.192;2023-02-24T10:01:31;14.80;;;8.20;;
64601;SDS011;51013;42.630;23.192;2023-02-24T10:04:11;17.88;;;9.30;;
64601;SDS011;51013;42.630;23.192;2023-02-24T10:06:49;13.20;;;7.53;;
64601;SDS011;51013;42.630;23.192;2023-02-24T10:09:20;15.00;;;9.18;;
64601;SDS011;51013;42.630;23.192;2023-02-24T10:11:51;13.75;;;5.72;;
64601;SDS011;51013;42.630;23.192;2023-02-24T10:14:28;18.95;;;10.20;;
64601;SDS011;51013;42.630;23.192;2023-02-24T10:17:07;14.35;;;7.43;;
64601;SDS011;51013;42.630;23.192;2023-02-24T10:19:48;18.63;;;8.45;;
64601;SDS011;51013;42.630;23.192;2023-02-24T10:22:23;18.00;;;9.30;;
64601;SDS011;51013;42.630;23.192;2023-02-24T10:25:03;15.82;;;8.00;;
64601;SDS011;51013;42.630;23.192;2023-02-24T10:27:49;20.08;;;9.32;;
64601;SDS011;51013;42.630;23.192;2023-02-24T10:30:30;12.30;;;5.63;;
64601;SDS011;51013;42.630;23.192;2023-02-24T10:33:16;17.02;;;8.65;;
64601;SDS011;51013;42.630;23.192;2023-02-24T10:35:49;13.63;;;8.18;;
64601;SDS011;51013;42.630;23.192;2023-02-24T10:38:19;27.05;;;10.60;;
64601;SDS011;51013;42.630;23.192;2023-02-24T10:40:47;23.08;;;10.20;;
64601;SDS011;51013;42.630;23.192;2023-02-24T10:43:21;15.57;;;8.23;;
64601;SDS011;51013;42.630;23.192;2023-02-24T10:45:54;17.08;;;8.77;;
64601;SDS011;51013;42.630;23.192;2023-02-24T10:48:31;14.48;;;8.55;;
64601;SDS011;51013;42.630;23.192;2023-02-24T10:51:08;25.63;;;9.13;;
64601;SDS011;51013;42.630;23.192;2023-02-24T10:53:46;24.23;;;9.68;;
64601;SDS011;51013;42.630;23.192;2023-02-24T10:56:33;17.90;;;9.02;;
64601;SDS011;51013;42.630;23.192;2023-02-24T10:59:09;19.52;;;9.90;;
64601;SDS011;51013;42.630;23.192;2023-02-24T11:02:13;13.75;;;7.10;;
64601;SDS011;51013;42.630;23.192;2023-02-24T11:04:51;14.60;;;5.70;;
64601;SDS011;51013;42.630;23.192;2023-02-24T11:07:41;11.63;;;6.72;;
64601;SDS011;51013;42.630;23.192;2023-02-24T11:10:20;14.18;;;7.88;;
64601;SDS011;51013;42.630;23.192;2023-02-24T11:12:56;12.65;;;7.47;;
64601;SDS011;51013;42.630;23.192;2023-02-24T11:15:43;12.70;;;5.78;;
64601;SDS011;51013;42.630;23.192;2023-02-24T11:18:30;12.43;;;7.30;;
64601;SDS011;51013;42.630;23.192;2023-02-24T11:20:59;19.27;;;9.02;;
64601;SDS011;51013;42.630;23.192;2023-02-24T11:23:28;17.73;;;8.98;;
64601;SDS011;51013;42.630;23.192;2023-02-24T11:26:01;15.77;;;7.05;;
64601;SDS011;51013;42.630;23.192;2023-02-24T11:28:45;12.45;;;8.00;;
64601;SDS011;51013;42.630;23.192;2023-02-24T11:31:23;12.95;;;6.85;;
64601;SDS011;51013;42.630;23.192;2023-02-24T11:34:06;7.63;;;4.03;;
64601;SDS011;51013;42.630;23.192;2023-02-24T11:36:36;9.18;;;5.38;;
64601;SDS011;51013;42.630;23.192;2023-02-24T11:39:24;12.60;;;7.22;;
64601;SDS011;51013;42.630;23.192;2023-02-24T11:42:04;14.20;;;6.88;;
64601;SDS011;51013;42.630;23.192;2023-02-24T11:44:39;12.05;;;6.80;;
64601;SDS011;51013;42.630;23.192;2023-02-24T11:47:15;16.23;;;8.25;;
64601;SDS011;51013;42.630;23.192;2023-02-24T11:49:47;11.45;;;6.43;;
64601;SDS011;51013;42.630;23.192;2023-02-24T11:52:19;13.13;;;8.13;;
64601;SDS011;51013;42.630;23.192;2023-02-24T11:54:52;15.13;;;6.90;;
64601;SDS011;51013;42.630;23.192;2023-02-24T11:57:25;13.93;;;6.57;;
64601;SDS011;51013;42.630;23.192;2023-02-24T11:59:57;10.32;;;5.35;;
64601;SDS011;51013;42.630;23.192;2023-02-24T12:02:32;9.77;;;5.35;;
64601;SDS011;51013;42.630;23.192;2023-02-24T12:05:09;10.65;;;5.93;;
64601;SDS011;51013;42.630;23.192;2023-02-24T12:07:41;14.40;;;7.28;;
64601;SDS011;51013;42.630;23.192;2023-02-24T12:10:13;13.80;;;7.03;;
64601;SDS011;51013;42.630;23.192;2023-02-24T12:15:16;13.23;;;7.47;;
64601;SDS011;51013;42.630;23.192;2023-02-24T12:17:52;18.02;;;7.97;;
64601;SDS011;51013;42.630;23.192;2023-02-24T12:20:25;13.57;;;6.28;;
64601;SDS011;51013;42.630;23.192;2023-02-24T12:22:56;13.52;;;7.28;;
64601;SDS011;51013;42.630;23.192;2023-02-24T12:25:26;17.17;;;7.78;;
64601;SDS011;51013;42.630;23.192;2023-02-24T12:28:03;19.40;;;9.63;;
64601;SDS011;51013;42.630;23.192;2023-02-24T12:30:49;50.33;;;27.50;;
64601;SDS011;51013;42.630;23.192;2023-02-24T12:33:27;14.02;;;7.53;;
64601;SDS011;51013;42.630;23.192;2023-02-24T12:36:11;9.93;;;5.93;;
64601;SDS011;51013;42.630;23.192;2023-02-24T12:38:49;15.98;;;7.50;;
64601;SDS011;51013;42.630;23.192;2023-02-24T12:41:29;13.95;;;8.23;;
64601;SDS011;51013;42.630;23.192;2023-02-24T12:44:20;12.98;;;7.68;;
64601;SDS011;51013;42.630;23.192;2023-02-24T12:46:56;19.85;;;8.95;;
64601;SDS011;51013;42.630;23.192;2023-02-24T12:49:43;28.77;;;10.65;;
64601;SDS011;51013;42.630;23.192;2023-02-24T12:52:23;25.45;;;10.10;;
64601;SDS011;51013;42.630;23.192;2023-02-24T12:54:57;19.17;;;9.60;;
64601;SDS011;51013;42.630;23.192;2023-02-24T12:57:33;18.85;;;9.27;;
64601;SDS011;51013;42.630;23.192;2023-02-24T13:00:11;11.60;;;7.05;;
64601;SDS011;51013;42.630;23.192;2023-02-24T13:02:48;11.07;;;6.15;;
64601;SDS011;51013;42.630;23.192;2023-02-24T13:05:23;9.13;;;5.38;;
64601;SDS011;51013;42.630;23.192;2023-02-24T13:10:58;11.43;;;6.13;;
64601;SDS011;51013;42.630;23.192;2023-02-24T13:13:30;10.40;;;5.57;;
64601;SDS011;51013;42.630;23.192;2023-02-24T13:16:05;13.65;;;6.20;;
64601;SDS011;51013;42.630;23.192;2023-02-24T13:18:33;10.27;;;5.07;;
64601;SDS011;51013;42.630;23.192;2023-02-24T13:21:05;10.50;;;4.35;;
64601;SDS011;51013;42.630;23.192;2023-02-24T13:23:34;13.55;;;5.97;;
64601;SDS011;51013;42.630;23.192;2023-02-24T13:26:01;21.20;;;8.20;;
64601;SDS011;51013;42.630;23.192;2023-02-24T13:28:29;9.88;;;5.13;;
64601;SDS011;51013;42.630;23.192;2023-02-24T13:31:01;10.88;;;4.93;;
64601;SDS011;51013;42.630;23.192;2023-02-24T13:33:32;12.85;;;5.78;;
64601;SDS011;51013;42.630;23.192;2023-02-24T13:36:09;7.03;;;3.47;;
64601;SDS011;51013;42.630;23.192;2023-02-24T13:38:39;7.22;;;3.58;;
64601;SDS011;51013;42.630;23.192;2023-02-24T13:41:15;12.50;;;6.03;;
64601;SDS011;51013;42.630;23.192;2023-02-24T13:43:55;11.35;;;6.15;;
64601;SDS011;51013;42.630;23.192;2023-02-24T13:46:23;9.15;;;5.40;;
64601;SDS011;51013;42.630;23.192;2023-02-24T13:48:59;13.13;;;5.80;;
64601;SDS011;51013;42.630;23.192;2023-02-24T13:51:43;15.10;;;6.28;;
64601;SDS011;51013;42.630;23.192;2023-02-24T13:54:22;12.85;;;6.72;;
64601;SDS011;51013;42.630;23.192;2023-02-24T13:57:06;18.10;;;6.88;;
64601;SDS011;51013;42.630;23.192;2023-02-24T13:59:52;16.45;;;6.50;;
64601;SDS011;51013;42.630;23.192;2023-02-24T14:02:34;66.95;;;20.60;;
64601;SDS011;51013;42.630;23.192;2023-02-24T14:05:08;88.05;;;29.00;;
64601;SDS011;51013;42.630;23.192;2023-02-24T14:07:42;25.90;;;10.55;;
64601;SDS011;51013;42.630;23.192;2023-02-24T14:10:13;24.40;;;9.80;;
64601;SDS011;51013;42.630;23.192;2023-02-24T14:12:43;15.97;;;6.60;;
64601;SDS011;51013;42.630;23.192;2023-02-24T14:15:12;36.60;;;14.40;;
64601;SDS011;51013;42.630;23.192;2023-02-24T14:17:41;51.15;;;23.05;;
64601;SDS011;51013;42.630;23.192;2023-02-24T14:20:18;26.60;;;11.02;;
64601;SDS011;51013;42.630;23.192;2023-02-24T14:22:46;34.00;;;14.70;;
64601;SDS011;51013;42.630;23.192;2023-02-24T14:25:15;60.42;;;24.67;;
64601;SDS011;51013;42.630;23.192;2023-02-24T14:27:43;33.80;;;15.73;;
64601;SDS011;51013;42.630;23.192;2023-02-24T14:30:19;34.88;;;16.48;;
64601;SDS011;51013;42.630;23.192;2023-02-24T14:32:49;38.78;;;15.82;;
64601;SDS011;51013;42.630;23.192;2023-02-24T14:35:19;24.13;;;11.48;;
64601;SDS011;51013;42.630;23.192;2023-02-24T14:37:52;26.92;;;12.35;;
64601;SDS011;51013;42.630;23.192;2023-02-24T14:40:19;29.98;;;13.80;;
64601;SDS011;51013;42.630;23.192;2023-02-24T14:42:50;24.42;;;12.05;;
64601;SDS011;51013;42.630;23.192;2023-02-24T14:45:19;24.88;;;11.48;;
64601;SDS011;51013;42.630;23.192;2023-02-24T14:47:49;22.17;;;9.13;;
64601;SDS011;51013;42.630;23.192;2023-02-24T14:50:17;29.05;;;11.40;;
64601;SDS011;51013;42.630;23.192;2023-02-24T14:52:47;30.02;;;12.35;;
64601;SDS011;51013;42.630;23.192;2023-02-24T14:55:18;28.90;;;14.48;;
64601;SDS011;51013;42.630;23.192;2023-02-24T14:57:48;35.97;;;15.45;;
64601;SDS011;51013;42.630;23.192;2023-02-24T15:00:21;26.40;;;13.43;;
64601;SDS011;51013;42.630;23.192;2023-02-24T15:02:51;27.05;;;13.75;;
64601;SDS011;51013;42.630;23.192;2023-02-24T15:05:26;28.33;;;13.10;;
64601;SDS011;51013;42.630;23.192;2023-02-24T15:07:54;31.80;;;13.73;;
64601;SDS011;51013;42.630;23.192;2023-02-24T15:10:23;24.17;;;12.40;;
64601;SDS011;51013;42.630;23.192;2023-02-24T15:12:53;23.75;;;12.18;;